Portada
METAR-TAF:

METAR-TAF

Aeropuertos :

La Palma, España

Aeropuerto de La Palma

latitud: 28-37N, longitud: 017-45W, altitud: 29 m

Observación

El informe se hizo hace 35 minutos, a las 17:30 UTC
Viento 10 kt del norte-noreste, variando entre norte y este-noreste
Temperatura 23°C
Humedad 65%
Presión 1021 hPa
Visibilidad 10 km o más
Escasas nubes a una altura de 2000 ft
Cielo nuboso a una altura de 3800 ft

METAR: GCLA 271730Z 03010KT 350V070 9999 FEW020 BKN038 23/16 Q1021

Hora: 18:05 (18:05 UTC)

Pronóstico

El informe se hizo hace 4 horas y 5 minutos, a las 14:00 UTC
Pronóstico válido del 27 a las 15 UTC al 28 a las 15 UTC
Viento 9 kt del norte-noreste
Visibilidad 10 km o más
Nubes dispersas a una altura de 3500 ft
Evolucionando progresivamente
del 27 a las 18 UTC al 27 a las 20 UTC
Viento 10 kt del norte-noroeste

TAF: GCLA 271400Z 2715/2815 03009KT 9999 SCT035 TX25/2814Z TN20/2807Z BECMG 2718/2720 33010KT

Observaciones y pronósticos meteorológicos de más de 4000 aeropuertos (mensajes METAR y TAF).

Los puntos amarillos y rojos representan las estaciones disponibles.

Ponga el ratón en el punto deseado para ver el nombre de la estación.

Haga clic para ver las observaciones y los pronósticos meteorológicos.

Para cambiar el mapa : haga clic en los botones verdes con una cruz de color negro para hacer un zoom, en el botón verde con un guión para alejar o en las flechas verdes para mapas adyacentes.


METAR-TAF: